Time;durP1;ratioP1;P1;durP2;ratioP2;P2;SDS_P1;SDS_P2;PMS_P1;PMS_P2;Temp;Humidity;BMP_temperature;BMP_pressure;BME280_temperature;BME280_humidity;BME280_pressure;Samples;Min_cycle;Max_cycle;Signal;HPM_P1;HPM_P2
2023/12/24 00:01:06;;;;;;;1.58;0.80;;;10.40;67.90;;;;;;4987495;28;20029;-58
2023/12/24 00:03:36;;;;;;;1.13;0.70;;;10.40;67.70;;;;;;5000625;28;20029;-58
2023/12/24 00:06:03;;;;;;;1.67;0.68;;;10.40;67.80;;;;;;5003735;28;20045;-60
2023/12/24 00:08:28;;;;;;;3.15;0.73;;;10.40;67.70;;;;;;4981505;28;20108;-58
2023/12/24 00:10:56;;;;;;;0.70;0.70;;;10.40;67.40;;;;;;4993569;28;20113;-58
2023/12/24 00:13:22;;;;;;;0.60;0.60;;;10.40;67.60;;;;;;4998850;28;20034;-59
2023/12/24 00:15:48;;;;;;;0.75;0.75;;;10.50;67.70;;;;;;4984132;28;20517;-59
2023/12/24 00:18:14;;;;;;;0.65;0.65;;;10.40;67.40;;;;;;4997573;28;20030;-57
2023/12/24 00:20:40;;;;;;;0.60;0.60;;;10.40;67.60;;;;;;5002065;28;20036;-57
2023/12/24 00:23:09;;;;;;;0.60;0.60;;;10.40;67.50;;;;;;5000045;28;20044;-59
2023/12/24 00:25:36;;;;;;;0.68;0.68;;;10.50;67.50;;;;;;5007687;28;20084;-57
2023/12/24 00:28:02;;;;;;;1.30;0.70;;;10.50;67.40;;;;;;5001423;28;20526;-59
2023/12/24 00:30:27;;;;;;;0.50;0.50;;;10.50;67.30;;;;;;5002091;28;20026;-59
2023/12/24 00:32:54;;;;;;;0.85;0.60;;;10.50;67.30;;;;;;5001625;28;20028;-59
2023/12/24 00:35:20;;;;;;;0.60;0.60;;;10.50;66.90;;;;;;5005720;28;20030;-59
2023/12/24 00:37:46;;;;;;;1.20;0.80;;;10.50;67.10;;;;;;5004368;28;20484;-59
2023/12/24 00:40:12;;;;;;;0.60;0.60;;;10.50;67.00;;;;;;5000884;28;20413;-59
2023/12/24 00:42:39;;;;;;;0.60;0.60;;;10.50;67.10;;;;;;4984694;28;20026;-59
2023/12/24 00:45:05;;;;;;;0.60;0.60;;;10.50;66.90;;;;;;4997797;28;20420;-59
2023/12/24 00:47:31;;;;;;;0.68;0.60;;;10.50;67.10;;;;;;4989380;28;20037;-58
2023/12/24 00:49:57;;;;;;;0.70;0.70;;;10.60;67.10;;;;;;4998419;28;20014;-58
2023/12/24 00:52:22;;;;;;;0.95;0.60;;;10.60;67.00;;;;;;4984457;28;20064;-57
2023/12/24 00:54:48;;;;;;;1.55;0.80;;;10.60;67.00;;;;;;5001145;28;20041;-58
2023/12/24 00:57:14;;;;;;;2.38;0.80;;;10.60;66.80;;;;;;5001999;28;20029;-58
2023/12/24 00:59:40;;;;;;;0.70;0.70;;;10.60;66.90;;;;;;4999817;28;20038;-58
2023/12/24 01:02:05;;;;;;;0.60;0.60;;;10.60;66.70;;;;;;5004031;28;20073;-58
2023/12/24 01:04:31;;;;;;;2.00;1.00;;;10.60;66.90;;;;;;5001803;28;20026;-59
2023/12/24 01:06:57;;;;;;;0.93;0.70;;;10.60;66.80;;;;;;4984988;28;20189;-60
2023/12/24 01:09:23;;;;;;;0.93;0.70;;;10.60;66.50;;;;;;5006883;28;20053;-58
2023/12/24 01:11:49;;;;;;;0.70;0.70;;;10.60;66.40;;;;;;5008250;28;20056;-57
2023/12/24 01:14:15;;;;;;;0.70;0.70;;;10.60;66.40;;;;;;4987739;28;20117;-58
2023/12/24 01:16:41;;;;;;;0.70;0.70;;;10.60;66.30;;;;;;5005339;28;20172;-58
2023/12/24 01:19:07;;;;;;;0.68;0.68;;;10.60;66.30;;;;;;5004447;28;20042;-58
2023/12/24 01:21:33;;;;;;;0.60;0.60;;;10.60;66.20;;;;;;5003772;28;20579;-58
2023/12/24 01:23:58;;;;;;;0.68;0.60;;;10.60;65.80;;;;;;5007242;28;20109;-58
2023/12/24 01:26:24;;;;;;;1.30;0.65;;;10.60;66.10;;;;;;4984610;28;20165;-57
2023/12/24 01:28:50;;;;;;;0.60;0.60;;;10.60;66.10;;;;;;5005056;28;20041;-57
2023/12/24 01:31:16;;;;;;;1.08;0.50;;;10.60;66.20;;;;;;5005734;28;20125;-58
2023/12/24 01:33:42;;;;;;;0.60;0.50;;;10.60;66.20;;;;;;5000388;28;20063;-58
2023/12/24 01:36:09;;;;;;;0.40;0.40;;;10.60;66.00;;;;;;5000156;28;20400;-58
2023/12/24 01:38:35;;;;;;;0.60;0.60;;;10.60;65.80;;;;;;4986432;28;20045;-58
2023/12/24 01:41:01;;;;;;;0.70;0.70;;;10.60;66.00;;;;;;5005876;28;20025;-58
2023/12/24 01:43:26;;;;;;;0.70;0.50;;;10.60;65.70;;;;;;5003116;28;20037;-58
2023/12/24 01:45:54;;;;;;;0.50;0.50;;;10.60;65.60;;;;;;4948983;28;20046;-58
2023/12/24 01:48:21;;;;;;;1.13;0.60;;;10.60;65.30;;;;;;4971919;28;20030;-59
2023/12/24 01:50:48;;;;;;;0.93;0.60;;;10.60;65.70;;;;;;5005029;28;20465;-57
2023/12/24 01:53:16;;;;;;;1.95;0.57;;;10.60;65.70;;;;;;4998048;28;20567;-59
2023/12/24 01:55:42;;;;;;;0.50;0.50;;;10.60;65.70;;;;;;5005002;28;20088;-59
2023/12/24 01:58:08;;;;;;;0.50;0.50;;;10.60;65.70;;;;;;5001782;28;20037;-60
2023/12/24 02:00:34;;;;;;;0.55;0.55;;;10.60;65.70;;;;;;4983635;28;20503;-59
2023/12/24 02:03:02;;;;;;;0.60;0.60;;;10.60;65.70;;;;;;4998804;28;23280;-60
2023/12/24 02:05:28;;;;;;;0.98;0.60;;;10.60;65.60;;;;;;4997977;28;20038;-59
2023/12/24 02:07:56;;;;;;;0.60;0.60;;;10.60;65.40;;;;;;5004089;28;20038;-59
2023/12/24 02:10:22;;;;;;;0.52;0.52;;;10.60;65.50;;;;;;4987868;28;20030;-59
2023/12/24 02:12:48;;;;;;;0.60;0.60;;;10.60;65.50;;;;;;5005558;28;20113;-58
2023/12/24 02:15:14;;;;;;;0.85;0.50;;;10.60;65.50;;;;;;5007956;28;20564;-58
2023/12/24 02:17:42;;;;;;;0.60;0.60;;;10.60;65.30;;;;;;5003428;28;20526;-58
2023/12/24 02:20:09;;;;;;;1.15;0.57;;;10.60;65.50;;;;;;4996743;28;20464;-58
2023/12/24 02:22:35;;;;;;;0.70;0.70;;;10.60;65.50;;;;;;5004810;28;20037;-58
2023/12/24 02:25:01;;;;;;;0.68;0.60;;;10.60;65.30;;;;;;5004635;28;20030;-58
2023/12/24 02:27:37;;;;;;;0.65;0.55;;;10.60;65.40;;;;;;4998038;28;20128;-57
2023/12/24 02:30:08;;;;;;;0.75;0.63;;;10.60;65.10;;;;;;5006883;28;20396;-58
2023/12/24 02:32:37;;;;;;;0.73;0.60;;;10.60;65.40;;;;;;4998059;28;20092;-58
2023/12/24 02:35:04;;;;;;;1.00;0.60;;;10.60;65.30;;;;;;5003764;28;20117;-58
2023/12/24 02:37:31;;;;;;;0.80;0.70;;;10.60;65.30;;;;;;5004143;28;20104;-58
2023/12/24 02:39:57;;;;;;;0.80;0.65;;;10.60;65.20;;;;;;5008846;28;20497;-59
2023/12/24 02:42:22;;;;;;;0.80;0.80;;;10.60;65.30;;;;;;5007738;28;20091;-58
2023/12/24 02:44:48;;;;;;;1.25;0.55;;;10.60;65.10;;;;;;5014358;28;20587;-58
2023/12/24 02:47:14;;;;;;;1.75;0.70;;;10.60;65.00;;;;;;5004536;28;20045;-57
2023/12/24 02:49:39;;;;;;;0.90;0.70;;;10.60;65.10;;;;;;4999922;28;20025;-58
2023/12/24 02:52:05;;;;;;;0.80;0.80;;;10.60;65.10;;;;;;5005503;28;20037;-58
2023/12/24 02:54:31;;;;;;;3.00;0.50;;;10.80;65.30;;;;;;4986913;28;20085;-57
2023/12/24 02:56:57;;;;;;;0.73;0.60;;;10.60;65.10;;;;;;5004415;28;20054;-59
2023/12/24 02:59:26;;;;;;;1.10;0.77;;;10.60;65.30;;;;;;5004638;28;20042;-58
2023/12/24 03:01:51;;;;;;;0.68;0.63;;;10.60;65.20;;;;;;4985523;28;20024;-58
2023/12/24 03:04:17;;;;;;;1.00;0.70;;;10.60;65.30;;;;;;4968465;28;20723;-58
2023/12/24 03:06:43;;;;;;;1.10;0.70;;;10.60;65.30;;;;;;4985761;28;20514;-58
2023/12/24 03:09:10;;;;;;;1.75;0.60;;;10.60;65.30;;;;;;4984923;28;20126;-59
2023/12/24 03:11:36;;;;;;;1.17;0.73;;;10.60;66.10;;;;;;5003531;28;20041;-59
2023/12/24 03:14:01;;;;;;;1.05;0.65;;;10.60;65.40;;;;;;5007022;28;20048;-59
2023/12/24 03:16:27;;;;;;;1.33;0.77;;;10.60;65.10;;;;;;5003309;28;20030;-58
2023/12/24 03:18:53;;;;;;;1.23;0.70;;;10.60;65.30;;;;;;5004424;28;20038;-58
2023/12/24 03:21:18;;;;;;;1.58;0.90;;;10.60;65.30;;;;;;5002363;28;20034;-58
2023/12/24 03:23:44;;;;;;;0.60;0.60;;;10.60;65.10;;;;;;4995822;28;20688;-58
2023/12/24 03:26:23;;;;;;;0.57;0.57;;;10.60;64.90;;;;;;5004312;28;20046;-58
2023/12/24 03:28:49;;;;;;;1.70;0.80;;;10.60;64.90;;;;;;5007013;28;20029;-59
2023/12/24 03:31:16;;;;;;;0.80;0.70;;;10.60;64.90;;;;;;4995529;28;20045;-58
2023/12/24 03:33:43;;;;;;;2.28;0.70;;;10.50;64.80;;;;;;5000055;28;20184;-58
2023/12/24 03:36:09;;;;;;;1.00;0.80;;;10.60;64.90;;;;;;5002562;28;20037;-58
2023/12/24 03:38:36;;;;;;;0.60;0.60;;;10.60;65.00;;;;;;5004118;28;20034;-58
2023/12/24 03:41:02;;;;;;;1.58;1.00;;;10.60;65.30;;;;;;5004441;28;20026;-58
2023/12/24 03:43:29;;;;;;;0.85;0.60;;;10.60;65.10;;;;;;4993005;28;20795;-58
2023/12/24 03:45:54;;;;;;;0.60;0.60;;;10.60;65.10;;;;;;4929493;28;20743;-59
2023/12/24 03:48:20;;;;;;;1.95;0.80;;;10.60;65.00;;;;;;5001602;28;20037;-59
2023/12/24 03:50:47;;;;;;;1.50;0.90;;;10.60;65.00;;;;;;4992275;28;20025;-60
2023/12/24 03:53:12;;;;;;;0.90;0.70;;;10.60;65.00;;;;;;5001483;28;20026;-59
2023/12/24 03:55:38;;;;;;;0.70;0.60;;;10.60;65.10;;;;;;5006844;28;20030;-58
2023/12/24 03:58:04;;;;;;;0.70;0.70;;;10.60;65.00;;;;;;4966565;28;20026;-60
2023/12/24 04:00:30;;;;;;;0.70;0.70;;;10.60;64.70;;;;;;4985707;28;20022;-59
2023/12/24 04:02:56;;;;;;;0.70;0.70;;;10.60;64.90;;;;;;4968360;28;20109;-59
2023/12/24 04:05:22;;;;;;;0.63;0.63;;;10.60;64.90;;;;;;5001677;28;20026;-58
2023/12/24 04:07:47;;;;;;;0.63;0.60;;;10.60;64.90;;;;;;4985668;28;20542;-57
2023/12/24 04:10:13;;;;;;;0.60;0.60;;;10.60;64.80;;;;;;5000141;28;20061;-58
2023/12/24 04:12:40;;;;;;;2.47;0.80;;;10.60;64.70;;;;;;5004037;28;20793;-58
2023/12/24 04:15:07;;;;;;;0.60;0.60;;;10.60;64.70;;;;;;4985309;28;20092;-58
2023/12/24 04:17:34;;;;;;;1.05;0.70;;;10.60;65.60;;;;;;5005256;28;20037;-58
2023/12/24 04:20:04;;;;;;;1.55;0.80;;;10.60;64.90;;;;;;5001477;28;20518;-59
2023/12/24 04:22:30;;;;;;;0.82;0.82;;;10.60;64.90;;;;;;4983256;28;20038;-58
2023/12/24 04:24:56;;;;;;;0.98;0.80;;;10.60;64.70;;;;;;4968617;28;20392;-58
2023/12/24 04:27:22;;;;;;;0.70;0.70;;;10.60;64.80;;;;;;5002570;28;20037;-58
2023/12/24 04:29:48;;;;;;;0.70;0.70;;;10.60;64.70;;;;;;5014731;28;20036;-59
2023/12/24 04:32:13;;;;;;;0.70;0.70;;;10.60;64.80;;;;;;5002455;28;20089;-59
2023/12/24 04:34:39;;;;;;;2.38;0.80;;;10.60;64.70;;;;;;4984690;28;20100;-59
2023/12/24 04:37:05;;;;;;;0.88;0.70;;;10.60;64.60;;;;;;4998414;28;20069;-58
2023/12/24 04:39:30;;;;;;;0.73;0.70;;;10.60;64.80;;;;;;5006984;28;20029;-59
2023/12/24 04:41:56;;;;;;;1.00;0.90;;;10.60;65.30;;;;;;4999054;28;20112;-57
2023/12/24 04:44:22;;;;;;;1.05;0.70;;;10.60;64.70;;;;;;4984308;28;20034;-59
2023/12/24 04:46:48;;;;;;;0.70;0.70;;;10.60;64.70;;;;;;4940828;28;20069;-58
2023/12/24 04:49:14;;;;;;;0.82;0.80;;;10.60;64.90;;;;;;4999230;28;20030;-59
2023/12/24 04:51:42;;;;;;;0.68;0.68;;;10.60;64.80;;;;;;5002007;28;20106;-58
2023/12/24 04:54:08;;;;;;;0.80;0.73;;;10.50;64.80;;;;;;5008567;28;20065;-59
2023/12/24 04:56:35;;;;;;;0.75;0.70;;;10.60;64.90;;;;;;5001910;28;20049;-58
2023/12/24 04:59:00;;;;;;;0.65;0.65;;;10.60;64.80;;;;;;5002143;28;20488;-58
2023/12/24 05:01:26;;;;;;;0.85;0.73;;;10.50;64.90;;;;;;5001443;28;20476;-58
2023/12/24 05:03:52;;;;;;;1.58;0.70;;;10.50;64.80;;;;;;5001581;28;20480;-58
2023/12/24 05:06:18;;;;;;;0.80;0.80;;;10.50;64.80;;;;;;4996804;28;20046;-58
2023/12/24 05:08:44;;;;;;;1.05;0.70;;;10.50;64.80;;;;;;5002087;28;20034;-60
2023/12/24 05:11:09;;;;;;;0.90;0.90;;;10.50;65.00;;;;;;5001101;28;20034;-58
2023/12/24 05:13:36;;;;;;;3.72;0.80;;;10.50;64.90;;;;;;5003345;28;20704;-58
2023/12/24 05:16:05;;;;;;;0.93;0.93;;;10.50;64.80;;;;;;4997185;28;20041;-58
2023/12/24 05:18:33;;;;;;;0.68;0.68;;;10.50;64.70;;;;;;4982436;28;20120;-58
2023/12/24 05:20:59;;;;;;;0.80;0.70;;;10.50;64.80;;;;;;4999018;28;20030;-58
2023/12/24 05:23:25;;;;;;;0.95;0.70;;;10.50;64.90;;;;;;5002454;28;20076;-58
2023/12/24 05:25:51;;;;;;;1.15;0.60;;;10.50;65.00;;;;;;5001551;28;20732;-58
2023/12/24 05:28:17;;;;;;;1.75;0.70;;;10.50;64.90;;;;;;5001800;28;20049;-58
2023/12/24 05:30:46;;;;;;;0.88;0.70;;;10.50;64.80;;;;;;4998143;28;20445;-58
2023/12/24 05:33:12;;;;;;;0.80;0.80;;;10.50;64.80;;;;;;4997211;28;20058;-57
2023/12/24 05:35:38;;;;;;;1.27;0.80;;;10.50;65.00;;;;;;5000383;28;20065;-59
2023/12/24 05:38:03;;;;;;;1.08;0.98;;;10.50;64.90;;;;;;5002187;28;20488;-59
2023/12/24 05:40:29;;;;;;;0.68;0.65;;;10.50;64.80;;;;;;5005470;28;20034;-59
2023/12/24 05:42:55;;;;;;;0.80;0.80;;;10.50;64.90;;;;;;4999841;28;20033;-59
2023/12/24 05:45:24;;;;;;;0.65;0.65;;;10.50;64.80;;;;;;4954196;28;20026;-58
2023/12/24 05:47:49;;;;;;;1.02;0.70;;;10.50;64.80;;;;;;5004181;28;20041;-59
2023/12/24 05:50:15;;;;;;;0.75;0.75;;;10.50;64.80;;;;;;5005220;28;20030;-59
2023/12/24 05:52:41;;;;;;;0.80;0.60;;;10.60;64.90;;;;;;4997402;28;20026;-57
2023/12/24 05:55:09;;;;;;;0.73;0.70;;;10.50;64.80;;;;;;4998739;28;20068;-59
2023/12/24 05:57:35;;;;;;;1.17;0.80;;;10.50;64.70;;;;;;5003417;28;20065;-58
2023/12/24 06:00:01;;;;;;;0.55;0.55;;;10.60;64.80;;;;;;5002207;28;20105;-58
2023/12/24 06:02:26;;;;;;;0.98;0.77;;;10.60;64.80;;;;;;4982504;28;20404;-57
2023/12/24 06:04:52;;;;;;;0.75;0.75;;;10.60;64.70;;;;;;5010689;28;20034;-58
2023/12/24 06:07:17;;;;;;;1.17;0.60;;;10.60;64.70;;;;;;5013330;28;20485;-58
2023/12/24 06:09:43;;;;;;;0.50;0.50;;;10.60;64.90;;;;;;5004747;28;20030;-58
2023/12/24 06:12:09;;;;;;;0.65;0.65;;;10.60;64.90;;;;;;5005079;28;20076;-58
2023/12/24 06:14:35;;;;;;;1.00;0.70;;;10.60;64.80;;;;;;5003337;28;20092;-59
2023/12/24 06:17:00;;;;;;;0.60;0.60;;;10.60;64.90;;;;;;5005027;28;20068;-58
2023/12/24 06:19:26;;;;;;;0.60;0.60;;;10.50;64.80;;;;;;5002159;28;20101;-58
2023/12/24 06:21:52;;;;;;;1.20;0.60;;;10.50;64.90;;;;;;5006309;28;20133;-58
2023/12/24 06:24:20;;;;;;;0.63;0.63;;;10.50;65.00;;;;;;5005726;28;20411;-58
2023/12/24 06:26:47;;;;;;;0.90;0.70;;;10.40;64.90;;;;;;5000354;28;20167;-59
2023/12/24 06:29:13;;;;;;;0.70;0.60;;;10.40;65.10;;;;;;5008230;28;20026;-58
2023/12/24 06:31:39;;;;;;;0.93;0.77;;;10.40;65.30;;;;;;5004725;28;20091;-58
2023/12/24 06:34:05;;;;;;;0.60;0.60;;;10.40;65.30;;;;;;4984813;28;20026;-59
2023/12/24 06:36:30;;;;;;;0.93;0.70;;;10.40;65.50;;;;;;5002766;28;20033;-59
2023/12/24 06:38:56;;;;;;;0.52;0.52;;;10.30;65.40;;;;;;5004227;28;20037;-58
2023/12/24 06:41:22;;;;;;;0.50;0.50;;;10.30;65.50;;;;;;5000526;28;20033;-58
2023/12/24 06:43:48;;;;;;;1.25;0.90;;;10.30;65.60;;;;;;4998290;28;20058;-58
2023/12/24 06:46:14;;;;;;;0.73;0.70;;;10.30;65.70;;;;;;4903399;28;20584;-58
2023/12/24 06:48:40;;;;;;;5.50;0.80;;;10.20;65.70;;;;;;5001993;28;20026;-59
2023/12/24 06:51:06;;;;;;;3.60;0.93;;;10.20;65.80;;;;;;5005352;28;20034;-58
2023/12/24 06:53:31;;;;;;;1.88;1.05;;;10.20;65.90;;;;;;4987207;28;20536;-59
2023/12/24 06:55:57;;;;;;;3.17;1.85;;;10.10;66.00;;;;;;5003954;28;20034;-59
2023/12/24 06:58:23;;;;;;;1.58;1.30;;;10.10;66.10;;;;;;5003423;28;20057;-58
2023/12/24 07:00:48;;;;;;;1.73;1.20;;;10.10;66.20;;;;;;5002335;28;20026;-57
2023/12/24 07:03:14;;;;;;;3.00;0.90;;;10.10;66.30;;;;;;5004392;28;20030;-60
2023/12/24 07:05:41;;;;;;;0.80;0.80;;;10.10;66.40;;;;;;4997541;28;20034;-58
2023/12/24 07:08:07;;;;;;;1.30;0.75;;;10.00;66.40;;;;;;4997611;28;20037;-59
2023/12/24 07:10:34;;;;;;;0.80;0.80;;;10.00;66.60;;;;;;5012526;28;20044;-58
2023/12/24 07:13:00;;;;;;;0.82;0.70;;;10.00;66.70;;;;;;5010326;28;20041;-58
2023/12/24 07:15:26;;;;;;;0.70;0.70;;;10.00;66.80;;;;;;5006702;28;20492;-58
2023/12/24 07:17:52;;;;;;;0.73;0.63;;;9.90;66.80;;;;;;5004410;28;20084;-58
2023/12/24 07:20:17;;;;;;;0.70;0.70;;;10.00;67.00;;;;;;5001883;28;20038;-60
2023/12/24 07:22:43;;;;;;;0.65;0.65;;;10.00;67.00;;;;;;5003137;28;20041;-59
2023/12/24 07:25:10;;;;;;;1.05;0.60;;;10.00;67.10;;;;;;5004069;28;20484;-57
2023/12/24 07:27:36;;;;;;;0.80;0.70;;;9.90;67.20;;;;;;5003958;28;20070;-57
2023/12/24 07:30:03;;;;;;;1.25;1.15;;;9.90;67.20;;;;;;5004666;28;20185;-60
2023/12/24 07:32:29;;;;;;;1.20;1.10;;;10.00;67.30;;;;;;5002720;28;20040;-60
2023/12/24 07:34:58;;;;;;;1.17;1.08;;;10.00;67.40;;;;;;4997915;28;20524;-61
2023/12/24 07:37:24;;;;;;;0.60;0.55;;;10.00;67.70;;;;;;5004037;28;20037;-62
2023/12/24 07:39:49;;;;;;;1.00;0.90;;;10.00;67.60;;;;;;5003200;28;20401;-62
2023/12/24 07:42:15;;;;;;;0.70;0.70;;;10.00;68.30;;;;;;5001761;28;20315;-60
2023/12/24 07:44:41;;;;;;;1.15;0.68;;;10.00;67.70;;;;;;5002968;28;20562;-60
2023/12/24 07:47:07;;;;;;;2.58;0.88;;;10.00;67.80;;;;;;4902371;28;20044;-60
2023/12/24 07:49:33;;;;;;;1.10;0.75;;;10.00;67.90;;;;;;4986277;28;20049;-61
2023/12/24 07:51:59;;;;;;;1.00;0.90;;;10.00;67.90;;;;;;5006206;28;20457;-60
2023/12/24 07:54:26;;;;;;;0.80;0.80;;;10.00;67.90;;;;;;5002733;28;20053;-61
2023/12/24 07:56:52;;;;;;;0.90;0.80;;;10.10;68.10;;;;;;5001016;28;20034;-60
2023/12/24 07:59:17;;;;;;;2.17;1.20;;;10.10;68.20;;;;;;5003565;28;20096;-60
2023/12/24 08:01:43;;;;;;;1.58;1.15;;;10.10;68.20;;;;;;4999141;28;20104;-60
2023/12/24 08:04:08;;;;;;;1.20;1.08;;;10.00;68.20;;;;;;4983855;28;20034;-60
2023/12/24 08:06:35;;;;;;;1.33;1.00;;;10.10;68.40;;;;;;5002142;28;20068;-61
2023/12/24 08:09:01;;;;;;;1.50;0.90;;;10.10;68.60;;;;;;5001945;28;20109;-61
2023/12/24 08:11:27;;;;;;;1.35;1.25;;;10.10;68.60;;;;;;5001973;28;20041;-62
2023/12/24 08:13:54;;;;;;;2.45;1.77;;;10.10;68.80;;;;;;4998945;28;20026;-61
2023/12/24 08:16:19;;;;;;;1.20;1.10;;;10.10;68.80;;;;;;4996752;28;20030;-61
2023/12/24 08:18:45;;;;;;;1.92;1.20;;;10.10;69.00;;;;;;5005540;28;20033;-61
2023/12/24 08:21:11;;;;;;;1.50;0.95;;;10.10;69.00;;;;;;5002024;28;20543;-61
2023/12/24 08:23:38;;;;;;;1.23;0.98;;;10.10;68.90;;;;;;4999985;28;20022;-61
2023/12/24 08:26:04;;;;;;;2.42;0.90;;;10.10;68.90;;;;;;5001369;28;20065;-62
2023/12/24 08:28:30;;;;;;;1.13;0.90;;;10.10;69.00;;;;;;5003603;28;20200;-60
2023/12/24 08:30:55;;;;;;;1.40;0.80;;;10.20;69.10;;;;;;5002896;28;20070;-60
2023/12/24 08:33:21;;;;;;;1.38;1.08;;;10.20;69.10;;;;;;5001774;28;20109;-61
2023/12/24 08:35:47;;;;;;;1.55;0.95;;;10.20;69.10;;;;;;5002772;28;20032;-61
2023/12/24 08:38:12;;;;;;;0.70;0.70;;;10.10;69.30;;;;;;4998825;28;20038;-61
2023/12/24 08:40:38;;;;;;;0.90;0.70;;;10.20;69.50;;;;;;5001113;28;20029;-61
2023/12/24 08:43:04;;;;;;;1.60;0.90;;;10.20;69.40;;;;;;5004617;28;20030;-61
2023/12/24 08:45:44;;;;;;;1.52;1.00;;;10.20;69.40;;;;;;4968579;28;20034;-61
2023/12/24 08:48:10;;;;;;;2.28;1.20;;;10.20;69.70;;;;;;4998248;28;20061;-60
2023/12/24 08:50:35;;;;;;;1.63;1.00;;;10.30;69.60;;;;;;5005847;28;20113;-61
2023/12/24 08:53:01;;;;;;;2.97;1.00;;;10.30;69.60;;;;;;4983788;28;20038;-62
2023/12/24 08:55:26;;;;;;;2.55;0.80;;;10.30;69.50;;;;;;5001102;28;20042;-61
2023/12/24 08:57:52;;;;;;;0.85;0.85;;;10.30;69.50;;;;;;5001596;28;20747;-61
2023/12/24 09:00:18;;;;;;;0.85;0.85;;;10.30;69.50;;;;;;5006325;28;20084;-61
2023/12/24 09:02:44;;;;;;;0.70;0.70;;;10.30;69.50;;;;;;4997266;28;20034;-61
2023/12/24 09:05:10;;;;;;;1.30;0.70;;;10.40;69.50;;;;;;5001128;28;20096;-61
2023/12/24 09:07:36;;;;;;;3.72;2.70;;;10.40;69.60;;;;;;4999310;28;20124;-61
2023/12/24 09:10:03;;;;;;;2.42;1.95;;;10.40;69.60;;;;;;5003324;28;20064;-61
2023/12/24 09:12:29;;;;;;;1.40;1.30;;;10.40;69.40;;;;;;5003768;28;20040;-61
2023/12/24 09:14:55;;;;;;;1.42;0.80;;;10.40;69.40;;;;;;5001178;28;20104;-59
2023/12/24 09:17:21;;;;;;;1.13;1.00;;;10.50;69.30;;;;;;5001996;28;20061;-60
2023/12/24 09:19:47;;;;;;;1.40;1.30;;;10.50;69.30;;;;;;5001590;28;20057;-61
2023/12/24 09:22:12;;;;;;;1.02;0.95;;;10.50;69.20;;;;;;4983109;28;20126;-61
2023/12/24 09:24:39;;;;;;;2.20;1.95;;;10.50;69.10;;;;;;4982287;28;20093;-61
2023/12/24 09:27:04;;;;;;;1.50;1.17;;;10.50;69.10;;;;;;4997536;28;20824;-60
2023/12/24 09:29:31;;;;;;;0.60;0.60;;;10.60;69.10;;;;;;4999337;28;20787;-60
2023/12/24 09:31:57;;;;;;;0.50;0.50;;;10.60;69.20;;;;;;4995992;28;20038;-61
2023/12/24 09:34:22;;;;;;;0.90;0.60;;;10.60;69.30;;;;;;5004797;28;20041;-61
2023/12/24 09:36:50;;;;;;;0.77;0.60;;;10.60;69.40;;;;;;5002335;28;20124;-60
2023/12/24 09:39:15;;;;;;;2.08;1.10;;;10.60;69.50;;;;;;5004976;28;20037;-61
2023/12/24 09:41:41;;;;;;;1.15;1.05;;;10.60;69.70;;;;;;5005730;28;20686;-60
2023/12/24 09:44:08;;;;;;;1.08;0.98;;;10.60;70.00;;;;;;5004537;28;20116;-61
2023/12/24 09:46:35;;;;;;;0.88;0.80;;;10.60;69.80;;;;;;4942167;28;20477;-61
2023/12/24 09:49:01;;;;;;;1.20;0.82;;;10.60;69.90;;;;;;4990336;28;20060;-61
2023/12/24 09:51:28;;;;;;;0.65;0.60;;;10.60;70.00;;;;;;5002820;28;20026;-60
2023/12/24 09:53:55;;;;;;;0.90;0.73;;;10.60;70.10;;;;;;5003111;28;20669;-61
2023/12/24 09:56:21;;;;;;;4.63;0.70;;;10.50;70.10;;;;;;5006882;28;20038;-60
2023/12/24 09:58:47;;;;;;;0.70;0.70;;;10.50;70.30;;;;;;5004378;28;20029;-60
2023/12/24 10:01:13;;;;;;;0.75;0.68;;;10.50;70.40;;;;;;4984309;28;20072;-60
2023/12/24 10:03:39;;;;;;;0.55;0.55;;;10.50;70.60;;;;;;5000046;28;20131;-60
2023/12/24 10:06:08;;;;;;;0.60;0.60;;;10.50;70.60;;;;;;5000758;28;20634;-60
2023/12/24 10:08:35;;;;;;;0.50;0.50;;;10.50;71.00;;;;;;5005271;28;20395;-61
2023/12/24 10:11:20;;;;;;;0.68;0.68;;;10.50;70.90;;;;;;5001843;28;20036;-61
2023/12/24 10:13:47;;;;;;;;;;;10.40;71.60;;;;;;5004206;28;20041;-61
2023/12/24 10:16:12;;;;;;;0.75;0.60;;;10.50;71.50;;;;;;4987906;28;19913;-61
2023/12/24 10:18:49;;;;;;;0.77;0.77;;;10.50;70.70;;;;;;5004376;28;20434;-61
2023/12/24 10:21:15;;;;;;;0.95;0.50;;;10.50;71.50;;;;;;5003028;28;20713;-61
2023/12/24 10:23:41;;;;;;;0.68;0.60;;;10.40;71.30;;;;;;5010158;28;20396;-60
2023/12/24 10:26:08;;;;;;;0.70;0.68;;;10.40;71.20;;;;;;5005540;28;20041;-61
2023/12/24 10:28:44;;;;;;;0.57;0.57;;;10.40;71.60;;;;;;5005137;28;20039;-60
2023/12/24 10:31:10;;;;;;;0.63;0.50;;;10.40;71.70;;;;;;4998380;28;20480;-61
2023/12/24 10:33:39;;;;;;;0.60;0.60;;;10.40;71.90;;;;;;5005028;28;20045;-62
2023/12/24 10:36:09;;;;;;;1.38;0.80;;;10.40;71.90;;;;;;5003461;28;20038;-60
2023/12/24 10:38:36;;;;;;;1.02;0.60;;;10.40;72.00;;;;;;5002609;28;20528;-60
2023/12/24 10:41:03;;;;;;;0.73;0.60;;;10.40;72.00;;;;;;5006580;28;20042;-60
2023/12/24 10:43:28;;;;;;;0.80;0.70;;;10.40;72.10;;;;;;5007242;28;20522;-61
2023/12/24 10:45:56;;;;;;;0.98;0.80;;;10.40;72.30;;;;;;4934991;28;20030;-60
2023/12/24 10:48:23;;;;;;;5.75;0.95;;;10.40;72.50;;;;;;5004901;28;20116;-61
2023/12/24 10:50:52;;;;;;;1.10;0.80;;;10.50;72.50;;;;;;4988283;28;20049;-61
2023/12/24 10:53:18;;;;;;;2.50;1.30;;;10.50;72.40;;;;;;5000156;28;20073;-59
2023/12/24 10:56:06;;;;;;;2.28;1.45;;;10.50;72.60;;;;;;5003335;28;20069;-62
2023/12/24 10:58:34;;;;;;;2.45;1.20;;;10.50;73.40;;;;;;4998510;28;20085;-62
2023/12/24 11:01:08;;;;;;;2.65;1.00;;;10.50;73.40;;;;;;5000067;28;20037;-60
2023/12/24 11:03:47;;;;;;;1.67;1.00;;;10.50;73.70;;;;;;5006929;28;20704;-60
2023/12/24 11:06:36;;;;;;;1.30;0.80;;;10.60;74.00;;;;;;5008088;28;20530;-60
2023/12/24 11:09:08;;;;;;;1.05;0.90;;;10.60;73.70;;;;;;5003717;28;20114;-63
2023/12/24 11:11:54;;;;;;;0.70;0.70;;;10.60;73.50;;;;;;4999353;28;20022;-60
2023/12/24 11:14:45;;;;;;;0.77;0.70;;;10.70;74.50;;;;;;5006744;28;20043;-61
2023/12/24 11:17:33;;;;;;;0.80;0.80;;;10.70;74.40;;;;;;5006796;28;20052;-60
2023/12/24 11:20:18;;;;;;;0.93;0.73;;;10.70;74.90;;;;;;5000201;28;20041;-60
2023/12/24 11:23:06;;;;;;;0.93;0.60;;;10.70;74.00;;;;;;5004996;28;20026;-60
2023/12/24 11:25:37;;;;;;;0.50;0.50;;;10.80;74.60;;;;;;5005479;28;20045;-61
2023/12/24 11:28:09;;;;;;;0.50;0.50;;;10.80;73.80;;;;;;5000228;28;20128;-61
2023/12/24 11:30:50;;;;;;;0.90;0.77;;;10.80;74.00;;;;;;4995476;28;20488;-61
2023/12/24 11:33:31;;;;;;;0.93;0.70;;;10.90;74.80;;;;;;5001242;28;20572;-61
2023/12/24 11:36:01;;;;;;;0.70;0.60;;;10.90;74.90;;;;;;5003220;28;20048;-61
2023/12/24 11:38:35;;;;;;;0.70;0.70;;;10.90;74.10;;;;;;5000289;28;20027;-61
2023/12/24 11:41:05;;;;;;;1.55;0.80;;;10.90;74.50;;;;;;5003224;28;20114;-61
2023/12/24 11:43:30;;;;;;;0.80;0.70;;;10.90;74.10;;;;;;5001418;28;20041;-61
2023/12/24 11:45:56;;;;;;;2.35;0.60;;;11.00;73.90;;;;;;4927496;28;20030;-61
2023/12/24 11:48:25;;;;;;;2.33;0.80;;;10.90;74.10;;;;;;5002683;28;20591;-62
2023/12/24 11:51:04;;;;;;;0.63;0.60;;;10.90;74.00;;;;;;5002814;28;20045;-60
2023/12/24 11:53:35;;;;;;;0.75;0.75;;;11.00;74.40;;;;;;4999887;28;20049;-62
2023/12/24 11:56:13;;;;;;;0.80;0.70;;;11.00;74.20;;;;;;5001228;28;20064;-61
2023/12/24 11:58:42;;;;;;;0.70;0.70;;;10.90;74.50;;;;;;4999402;28;20029;-63
2023/12/24 12:01:08;;;;;;;0.90;0.80;;;10.90;74.00;;;;;;4999165;28;20457;-60
2023/12/24 12:03:36;;;;;;;1.70;0.82;;;11.00;74.40;;;;;;5003199;28;20034;-61
2023/12/24 12:06:04;;;;;;;1.85;1.10;;;11.00;74.50;;;;;;5004073;28;20140;-61
2023/12/24 12:08:32;;;;;;;2.40;1.20;;;10.90;74.40;;;;;;5003089;28;20037;-62
2023/12/24 12:10:58;;;;;;;5.30;1.73;;;10.90;74.20;;;;;;5001644;28;20064;-61
2023/12/24 12:13:24;;;;;;;3.03;1.98;;;11.00;74.60;;;;;;5007062;28;20500;-61
2023/12/24 12:15:50;;;;;;;2.33;1.42;;;11.00;74.70;;;;;;4983896;28;20034;-61
2023/12/24 12:18:16;;;;;;;2.13;1.50;;;10.90;75.10;;;;;;5002176;28;20038;-62
2023/12/24 12:20:44;;;;;;;5.00;2.78;;;10.90;74.90;;;;;;5003559;28;20038;-61
2023/12/24 12:23:10;;;;;;;7.53;4.63;;;11.00;74.80;;;;;;5000136;28;20120;-62
2023/12/24 12:25:35;;;;;;;4.57;1.77;;;11.00;75.10;;;;;;5001158;28;20357;-62
2023/12/24 12:28:01;;;;;;;5.60;3.47;;;11.00;74.90;;;;;;5004321;28;20068;-61
2023/12/24 12:30:26;;;;;;;3.58;1.70;;;11.00;74.80;;;;;;5003718;28;20034;-62
2023/12/24 12:32:53;;;;;;;2.20;1.60;;;11.00;75.00;;;;;;5002018;28;20080;-61
2023/12/24 12:35:19;;;;;;;3.13;1.50;;;11.00;74.80;;;;;;5005175;28;20116;-63
2023/12/24 12:37:45;;;;;;;1.98;1.35;;;11.10;75.10;;;;;;4994913;28;20026;-62
2023/12/24 12:40:11;;;;;;;1.52;1.30;;;11.00;74.90;;;;;;5001482;28;20030;-60
2023/12/24 12:42:37;;;;;;;0.90;0.90;;;11.10;75.50;;;;;;5001479;28;20061;-61
2023/12/24 12:45:03;;;;;;;1.13;0.70;;;11.10;75.40;;;;;;5000600;28;20131;-62
2023/12/24 12:47:29;;;;;;;0.80;0.80;;;11.10;75.30;;;;;;5001985;28;20034;-62